Wellington, South Dakota
Current Conditions -  °F | °C
As of 3:56 PM on Tuesday 25 Nov 2014 (Local Time) from KFSD Reporting Station
Overcast Overcast  
Wind Chill: 29°   Ceiling: 25000
Heat Index: 36°   Visibility: 10mi
Dew Point: 23°   Wind: 9mph
Humidity: 59%   Direction: 150°SSE
Pressure: 29.88"   Gusts: NA
Location:  43.587°N, 97.0695°W
Report Text: KFSD 252156Z 15008KT 10SM SCT140 OVC250 02/M05 A2988 RMK AO2 SLP139 T00221050
Loading
Personal Weather Stations






























Interactive Weather Map New forecast layout! Learn more

10-Day Weather Forecast

Advertisements
Track Severe Weather on mobile